createdAt,value
2018-03-07T00:00:47.980Z,0
2018-03-07T00:01:58.047Z,0
2018-03-07T00:03:08.105Z,0
2018-03-07T00:04:18.150Z,0
2018-03-07T00:05:27.937Z,0
2018-03-07T00:06:37.528Z,0
2018-03-07T00:07:47.595Z,0
2018-03-07T00:08:57.643Z,0
2018-03-07T00:10:07.199Z,0
2018-03-07T00:11:17.280Z,0
2018-03-07T00:12:27.384Z,0
2018-03-07T00:13:37.464Z,0
2018-03-07T00:14:47.261Z,0
2018-03-07T00:15:57.376Z,0
2018-03-07T00:17:07.439Z,0
2018-03-07T00:18:17.525Z,0
2018-03-07T00:19:27.652Z,0
2018-03-07T00:20:37.731Z,0
2018-03-07T00:21:47.781Z,0
2018-03-07T00:22:57.858Z,0
2018-03-07T00:24:07.664Z,0
2018-03-07T00:25:17.743Z,0
2018-03-07T00:26:27.813Z,0
2018-03-07T00:27:37.871Z,0
2018-03-07T00:28:47.933Z,0
2018-03-07T00:29:57.738Z,0
2018-03-07T00:31:07.287Z,0
2018-03-07T00:32:17.351Z,0
2018-03-07T00:33:27.425Z,0
2018-03-07T00:34:37.493Z,0
2018-03-07T00:35:47.552Z,0
2018-03-07T00:36:57.595Z,0
2018-03-07T00:38:07.648Z,0
2018-03-07T00:39:17.452Z,0
2018-03-07T00:40:27.526Z,0
2018-03-07T00:41:37.433Z,0
2018-03-07T00:42:47.488Z,0
2018-03-07T00:43:57.020Z,0
2018-03-07T00:45:06.813Z,0
2018-03-07T00:46:16.628Z,0
2018-03-07T00:47:26.178Z,0
2018-03-07T00:48:35.707Z,0
2018-03-07T00:49:45.518Z,0
2018-03-07T00:50:55.580Z,0
2018-03-07T00:52:05.410Z,0
2018-03-07T00:53:14.948Z,0
2018-03-07T00:54:24.761Z,0
2018-03-07T00:55:34.817Z,0
2018-03-07T00:56:44.639Z,0
2018-03-07T00:57:54.435Z,0
2018-03-07T00:59:04.250Z,0
2018-03-07T01:00:14.361Z,0
2018-03-07T01:01:24.187Z,0
2018-03-07T01:02:34.249Z,0
2018-03-07T01:03:44.306Z,0
2018-03-07T01:04:54.378Z,0
2018-03-07T01:06:04.472Z,0
2018-03-07T01:07:14.525Z,0
2018-03-07T01:08:24.577Z,0
2018-03-07T01:09:34.650Z,0
2018-03-07T01:10:44.694Z,0
2018-03-07T01:11:54.752Z,0
2018-03-07T01:13:04.810Z,0
2018-03-07T01:14:14.866Z,0
2018-03-07T01:15:24.898Z,0
2018-03-07T01:16:34.962Z,0
2018-03-07T01:17:45.021Z,0
2018-03-07T01:18:55.078Z,0
2018-03-07T01:20:04.887Z,0
2018-03-07T01:21:14.939Z,0
2018-03-07T01:22:25.053Z,0
2018-03-07T01:23:34.861Z,0
2018-03-07T01:24:44.936Z,0
2018-03-07T01:25:54.974Z,0
2018-03-07T01:27:05.041Z,0
2018-03-07T01:28:15.097Z,0
2018-03-07T01:29:25.156Z,0
2018-03-07T01:30:34.941Z,0
2018-03-07T01:31:44.731Z,0
2018-03-07T01:32:54.790Z,0
2018-03-07T01:34:04.325Z,0
2018-03-07T01:35:14.401Z,0
2018-03-07T01:36:24.459Z,0
2018-03-07T01:37:34.530Z,0
2018-03-07T01:38:44.343Z,0
2018-03-07T01:39:54.184Z,0
2018-03-07T01:41:03.982Z,0
2018-03-07T01:42:14.043Z,0
2018-03-07T01:43:24.113Z,0
2018-03-07T01:44:33.907Z,0
2018-03-07T01:45:43.956Z,0
2018-03-07T01:46:54.022Z,0
2018-03-07T01:48:04.088Z,0
2018-03-07T01:49:14.152Z,0
2018-03-07T01:50:24.195Z,0
2018-03-07T01:51:34.246Z,0
2018-03-07T01:52:44.293Z,0
2018-03-07T01:53:54.345Z,0
2018-03-07T01:55:04.415Z,0
2018-03-07T01:56:14.209Z,0
2018-03-07T01:57:24.275Z,0
2018-03-07T01:58:34.076Z,0
2018-03-07T01:59:43.878Z,0
2018-03-07T02:00:53.927Z,0
2018-03-07T02:02:03.980Z,0
2018-03-07T02:03:13.559Z,0
2018-03-07T02:04:23.625Z,0
2018-03-07T02:05:33.672Z,0
2018-03-07T02:06:43.475Z,0
2018-03-07T02:07:53.284Z,0
2018-03-07T02:09:03.143Z,0
2018-03-07T02:10:12.942Z,0
2018-03-07T02:11:23.011Z,0
2018-03-07T02:12:32.543Z,0
2018-03-07T02:13:42.606Z,0
2018-03-07T02:14:52.708Z,0
2018-03-07T02:16:02.493Z,0
2018-03-07T02:17:12.296Z,0
2018-03-07T02:18:22.340Z,0
2018-03-07T02:19:31.910Z,0
2018-03-07T02:20:42.022Z,0
2018-03-07T02:21:51.822Z,0
2018-03-07T02:23:01.633Z,0
2018-03-07T02:24:11.693Z,0
2018-03-07T02:25:21.753Z,0
2018-03-07T02:26:31.801Z,0
2018-03-07T02:27:41.071Z,0
2018-03-07T02:28:50.875Z,0
2018-03-07T02:30:00.664Z,0
2018-03-07T02:31:10.531Z,0
2018-03-07T02:32:20.058Z,0
2018-03-07T02:33:30.120Z,0
2018-03-07T02:34:39.953Z,0
2018-03-07T02:35:50.024Z,0
2018-03-07T02:36:59.889Z,0
2018-03-07T02:38:09.963Z,0
2018-03-07T02:39:20.045Z,0
2018-03-07T02:40:29.589Z,0
2018-03-07T02:41:39.655Z,0
2018-03-07T02:42:49.450Z,0
2018-03-07T02:43:59.268Z,0
2018-03-07T02:45:09.061Z,0
2018-03-07T02:46:19.157Z,0
2018-03-07T02:47:28.968Z,0
2018-03-07T02:48:39.059Z,0
2018-03-07T02:49:49.115Z,0
2018-03-07T02:50:59.191Z,0
2018-03-07T02:52:09.263Z,0
2018-03-07T02:53:19.061Z,0
2018-03-07T02:54:29.133Z,0
2018-03-07T02:55:38.942Z,0
2018-03-07T02:56:49.017Z,0
2018-03-07T02:57:59.103Z,0
2018-03-07T02:59:09.167Z,0
2018-03-07T03:00:19.334Z,0
2018-03-07T03:01:29.407Z,0
2018-03-07T03:02:39.204Z,0
2018-03-07T03:03:49.276Z,0
2018-03-07T03:04:59.132Z,0
2018-03-07T03:06:09.203Z,0
2018-03-07T03:07:19.310Z,0
2018-03-07T03:08:29.373Z,0
2018-03-07T03:40:01.587Z,0
2018-03-07T03:41:11.648Z,0
2018-03-07T03:42:21.450Z,0
2018-03-07T03:43:31.503Z,0
2018-03-07T03:44:41.558Z,0
2018-03-07T03:45:51.724Z,0
2018-03-07T03:47:01.255Z,0
2018-03-07T03:48:11.104Z,0
2018-03-07T03:49:21.176Z,0
2018-03-07T03:50:31.230Z,0
2018-03-07T03:51:41.332Z,0
2018-03-07T03:52:51.399Z,0
2018-03-07T03:54:01.462Z,0
2018-03-07T03:55:11.538Z,0
2018-03-07T03:56:21.603Z,0
2018-03-07T03:57:31.409Z,0
2018-03-07T03:58:41.199Z,0
2018-03-07T03:59:50.741Z,0
2018-03-07T04:01:00.797Z,0
2018-03-07T04:02:10.859Z,0
2018-03-07T04:03:20.714Z,0
2018-03-07T04:04:30.513Z,0
2018-03-07T04:05:40.655Z,0
2018-03-07T04:06:50.707Z,0
2018-03-07T04:08:00.761Z,0
2018-03-07T04:09:10.855Z,0
2018-03-07T04:10:20.902Z,0
2018-03-07T04:11:30.943Z,0
2018-03-07T04:12:40.728Z,0
2018-03-07T04:13:50.791Z,0
2018-03-07T04:15:00.597Z,0
2018-03-07T04:16:10.390Z,0
2018-03-07T04:17:20.441Z,0
2018-03-07T04:18:29.710Z,0
2018-03-07T04:19:39.516Z,0
2018-03-07T04:20:49.613Z,0
2018-03-07T04:21:59.702Z,0
2018-03-07T04:23:09.759Z,0
2018-03-07T04:24:19.821Z,0
2018-03-07T04:25:29.957Z,0
2018-03-07T04:26:40.079Z,0
2018-03-07T04:27:50.137Z,0
2018-03-07T04:29:00.185Z,0
2018-03-07T04:30:10.000Z,0
2018-03-07T04:31:20.056Z,0
2018-03-07T04:32:30.115Z,0
2018-03-07T04:33:40.180Z,0
2018-03-07T04:34:50.244Z,0
2018-03-07T04:36:00.289Z,0
2018-03-07T04:37:10.073Z,0
2018-03-07T04:38:19.862Z,0
2018-03-07T04:39:29.656Z,0
2018-03-07T04:40:39.531Z,0
2018-03-07T04:41:49.643Z,0
2018-03-07T04:42:59.447Z,0
2018-03-07T04:44:09.533Z,0
2018-03-07T04:45:19.321Z,0
2018-03-07T04:46:29.378Z,0
2018-03-07T04:47:39.184Z,0
2018-03-07T04:48:48.971Z,0
2018-03-07T04:49:58.547Z,0
2018-03-07T04:51:08.324Z,0
2018-03-07T04:52:18.399Z,0
2018-03-07T04:53:28.190Z,0
2018-03-07T04:54:37.995Z,0
2018-03-07T04:55:47.568Z,0
2018-03-07T04:56:57.362Z,0
2018-03-07T04:58:07.428Z,0
2018-03-07T04:59:16.983Z,0
2018-03-07T05:00:27.057Z,0
2018-03-07T05:01:37.234Z,0
2018-03-07T05:02:47.719Z,0
2018-03-07T05:03:57.793Z,0
2018-03-07T05:05:07.589Z,0
2018-03-07T05:06:17.655Z,0
2018-03-07T05:07:27.253Z,0
2018-03-07T05:08:37.312Z,0
2018-03-07T05:09:47.122Z,0
2018-03-07T05:10:57.197Z,0
2018-03-07T05:12:06.742Z,0
2018-03-07T05:13:16.957Z,0
2018-03-07T05:14:27.023Z,0
2018-03-07T05:15:37.074Z,0
2018-03-07T05:16:46.872Z,0
2018-03-07T05:17:56.922Z,0
2018-03-07T05:19:06.989Z,0
2018-03-07T05:20:17.048Z,0
2018-03-07T05:21:27.117Z,0
2018-03-07T05:22:37.172Z,0
2018-03-07T05:23:47.231Z,0
2018-03-07T05:24:56.836Z,0
2018-03-07T05:26:06.904Z,0
2018-03-07T05:27:16.986Z,5
2018-03-07T05:28:27.041Z,5
2018-03-07T05:29:37.104Z,5
2018-03-07T05:30:47.202Z,5
2018-03-07T05:31:57.240Z,5
2018-03-07T05:33:07.296Z,5
2018-03-07T05:34:16.840Z,10
2018-03-07T05:35:26.679Z,10
2018-03-07T05:36:36.742Z,10
2018-03-07T05:37:46.803Z,10
2018-03-07T05:38:56.366Z,10
2018-03-07T05:40:06.424Z,15
2018-03-07T05:41:16.214Z,15
2018-03-07T05:42:26.271Z,15
2018-03-07T05:43:36.322Z,20
2018-03-07T05:44:46.382Z,20
2018-03-07T05:45:56.501Z,25
2018-03-07T05:47:06.060Z,25
2018-03-07T05:48:16.113Z,25
2018-03-07T05:49:25.915Z,25
2018-03-07T05:50:35.976Z,30
2018-03-07T05:51:45.779Z,30
2018-03-07T05:52:55.855Z,35
2018-03-07T05:54:05.918Z,35
2018-03-07T05:55:15.724Z,35
2018-03-07T05:56:25.781Z,35
2018-03-07T05:57:35.635Z,35
2018-03-07T05:58:45.705Z,40
2018-03-07T05:59:55.525Z,40
2018-03-07T06:01:05.323Z,45
2018-03-07T06:02:15.389Z,45
2018-03-07T06:03:25.447Z,45
2018-03-07T06:04:35.514Z,45
2018-03-07T06:05:45.316Z,50
2018-03-07T06:06:55.386Z,50
2018-03-07T06:08:05.440Z,50
2018-03-07T06:09:15.291Z,55
2018-03-07T06:10:25.349Z,55
2018-03-07T06:11:35.146Z,55
2018-03-07T06:12:45.207Z,55
2018-03-07T06:13:55.274Z,60
2018-03-07T06:15:05.341Z,60
2018-03-07T06:16:15.401Z,60
2018-03-07T06:17:25.463Z,60
2018-03-07T06:18:35.255Z,65
2018-03-07T06:19:45.317Z,75
2018-03-07T06:20:55.157Z,80
2018-03-07T06:22:04.945Z,80
2018-03-07T06:23:15.016Z,80
2018-03-07T06:24:25.087Z,80
2018-03-07T06:25:35.151Z,75
2018-03-07T06:26:44.688Z,65
2018-03-07T06:27:54.778Z,60
2018-03-07T06:29:04.839Z,60
2018-03-07T06:30:14.647Z,60
2018-03-07T06:31:24.729Z,65
2018-03-07T06:32:34.588Z,65
2018-03-07T06:33:44.644Z,65
2018-03-07T06:34:54.701Z,65
2018-03-07T06:36:04.502Z,65
2018-03-07T06:37:14.328Z,60
2018-03-07T06:38:24.405Z,55
2018-03-07T06:39:34.197Z,50
2018-03-07T06:40:43.991Z,45
2018-03-07T06:41:54.058Z,40
2018-03-07T06:43:03.857Z,40
2018-03-07T06:44:13.921Z,40
2018-03-07T06:45:23.723Z,35
2018-03-07T06:46:33.891Z,35
2018-03-07T06:47:43.969Z,30
2018-03-07T06:48:54.032Z,35
2018-03-07T06:50:03.837Z,35
2018-03-07T06:51:13.381Z,30
2018-03-07T06:52:23.441Z,30
2018-03-07T06:53:33.497Z,25
2018-03-07T06:54:42.766Z,25
2018-03-07T06:55:52.813Z,25
2018-03-07T06:57:02.621Z,25
2018-03-07T06:58:12.924Z,25
2018-03-07T06:59:22.740Z,25
2018-03-07T07:00:32.802Z,25
2018-03-07T07:01:42.865Z,25
2018-03-07T07:02:52.928Z,25
2018-03-07T07:04:02.731Z,30
2018-03-07T07:05:12.544Z,30
2018-03-07T07:06:22.746Z,30
2018-03-07T07:07:32.849Z,30
2018-03-07T07:08:42.647Z,30
2018-03-07T07:09:52.716Z,30
2018-03-07T07:11:02.781Z,30
2018-03-07T07:12:12.582Z,30
2018-03-07T07:13:22.127Z,30
2018-03-07T07:14:32.180Z,30
2018-03-07T07:15:42.249Z,30
2018-03-07T07:16:52.145Z,35
2018-03-07T07:18:02.256Z,35
2018-03-07T07:19:12.321Z,40
2018-03-07T07:20:21.933Z,45
2018-03-07T07:21:31.740Z,45
2018-03-07T07:22:41.281Z,45
2018-03-07T07:23:51.076Z,45
2018-03-07T07:25:00.902Z,45
2018-03-07T07:26:10.975Z,50
2018-03-07T07:27:21.042Z,55
2018-03-07T07:28:30.865Z,55
2018-03-07T07:29:40.919Z,55
2018-03-07T07:30:50.964Z,50
2018-03-07T07:32:00.756Z,45
2018-03-07T07:33:10.556Z,40
2018-03-07T07:34:20.664Z,40
2018-03-07T07:35:30.470Z,40
2018-03-07T07:36:40.262Z,35
2018-03-07T07:37:50.380Z,35
2018-03-07T07:39:00.189Z,35
2018-03-07T07:40:09.979Z,35
2018-03-07T07:41:19.774Z,30
2018-03-07T07:42:29.855Z,30
2018-03-07T07:43:39.927Z,30
2018-03-07T07:44:49.984Z,30
2018-03-07T07:46:00.059Z,30
2018-03-07T07:47:10.144Z,30
2018-03-07T07:48:19.939Z,25
2018-03-07T07:49:30.035Z,25
2018-03-07T07:50:40.115Z,25
2018-03-07T07:51:50.177Z,25
2018-03-07T07:53:00.275Z,25
2018-03-07T07:54:10.074Z,25
2018-03-07T07:55:19.886Z,30
2018-03-07T07:56:29.948Z,35
2018-03-07T07:57:39.820Z,40
2018-03-07T07:58:49.891Z,45
2018-03-07T07:59:59.965Z,45
2018-03-07T08:01:09.810Z,55
2018-03-07T08:02:19.862Z,55
2018-03-07T08:03:30.009Z,60
2018-03-07T08:04:40.057Z,65
2018-03-07T08:05:49.872Z,70
2018-03-07T08:06:59.913Z,75
2018-03-07T08:08:09.972Z,80
2018-03-07T08:09:19.516Z,85
2018-03-07T08:10:29.576Z,85
2018-03-07T08:11:39.365Z,90
2018-03-07T08:12:49.219Z,95
2018-03-07T08:13:59.058Z,100
2018-03-07T08:15:08.857Z,100
2018-03-07T08:16:18.919Z,105
2018-03-07T08:17:29.010Z,110
2018-03-07T08:18:39.062Z,110
2018-03-07T08:19:49.099Z,110
2018-03-07T08:20:59.161Z,105
2018-03-07T08:22:09.243Z,105
2018-03-07T08:23:19.330Z,110
2018-03-07T08:24:29.410Z,110
2018-03-07T08:25:39.219Z,115
2018-03-07T08:26:49.280Z,115
2018-03-07T08:27:59.341Z,120
2018-03-07T08:29:09.147Z,125
2018-03-07T08:30:19.282Z,130
2018-03-07T08:31:29.321Z,135
2018-03-07T08:32:38.854Z,135
2018-03-07T08:33:48.928Z,135
2018-03-07T08:34:58.729Z,140
2018-03-07T08:36:08.854Z,140
2018-03-07T08:37:18.916Z,135
2018-03-07T08:38:28.986Z,130
2018-03-07T08:39:38.794Z,130
2018-03-07T08:40:48.857Z,135
2018-03-07T08:41:58.961Z,135
2018-03-07T08:43:08.748Z,135
2018-03-07T08:44:18.820Z,140
2018-03-07T08:45:28.895Z,140
2018-03-07T08:46:38.437Z,145
2018-03-07T08:47:48.548Z,140
2018-03-07T08:48:58.599Z,140
2018-03-07T08:50:08.738Z,145
2018-03-07T08:51:18.804Z,150
2018-03-07T08:52:28.882Z,150
2018-03-07T08:53:38.928Z,155
2018-03-07T08:54:49.124Z,155
2018-03-07T08:55:58.947Z,160
2018-03-07T08:57:09.009Z,160
2018-03-07T08:58:19.062Z,160
2018-03-07T08:59:29.124Z,160
2018-03-07T09:00:39.317Z,160
2018-03-07T09:01:49.397Z,160
2018-03-07T09:02:59.194Z,155
2018-03-07T09:04:09.252Z,150
2018-03-07T09:05:19.071Z,145
2018-03-07T09:06:28.626Z,150
2018-03-07T09:07:38.676Z,155
2018-03-07T09:08:48.740Z,155
2018-03-07T09:09:58.823Z,160
2018-03-07T09:11:08.886Z,160
2018-03-07T09:12:18.697Z,160
2018-03-07T09:13:28.773Z,160
2018-03-07T09:14:38.831Z,160
2018-03-07T09:15:48.911Z,160
2018-03-07T09:16:58.444Z,160
2018-03-07T09:18:08.497Z,165
2018-03-07T09:19:18.564Z,165
2018-03-07T09:20:28.640Z,165
2018-03-07T09:21:38.746Z,170
2018-03-07T09:22:48.820Z,170
2018-03-07T09:23:58.892Z,170
2018-03-07T09:25:08.953Z,170
2018-03-07T09:26:19.028Z,170
2018-03-07T09:27:29.090Z,170
2018-03-07T09:28:38.908Z,165
2018-03-07T09:29:48.979Z,155
2018-03-07T09:30:59.051Z,145
2018-03-07T09:32:09.122Z,145
2018-03-07T09:33:19.193Z,145
2018-03-07T09:34:29.266Z,140
2018-03-07T09:35:39.370Z,135
2018-03-07T09:36:49.165Z,135
2018-03-07T09:37:59.215Z,135
2018-03-07T09:39:09.303Z,135
2018-03-07T09:40:19.091Z,130
2018-03-07T09:41:29.152Z,135
2018-03-07T09:42:38.961Z,140
2018-03-07T09:43:48.764Z,155
2018-03-07T09:44:58.852Z,170
2018-03-07T09:46:08.655Z,185
2018-03-07T09:47:18.741Z,195
2018-03-07T09:48:29.248Z,195
2018-03-07T09:49:39.303Z,210
2018-03-07T09:50:49.367Z,210
2018-03-07T09:51:59.187Z,235
2018-03-07T09:53:09.256Z,235
2018-03-07T09:54:19.053Z,230
2018-03-07T09:55:28.857Z,255
2018-03-07T09:56:39.126Z,255
2018-03-07T09:57:48.340Z,255
2018-03-07T09:58:58.415Z,230
2018-03-07T10:00:08.219Z,220
2018-03-07T10:01:18.023Z,215
2018-03-07T10:02:27.562Z,205
2018-03-07T10:03:37.384Z,245
2018-03-07T10:04:47.196Z,220
2018-03-07T10:05:57.255Z,255
2018-03-07T10:07:07.507Z,245
2018-03-07T10:08:17.652Z,255
2018-03-07T10:09:27.733Z,270
2018-03-07T10:10:37.802Z,275
2018-03-07T10:11:47.882Z,280
2018-03-07T10:12:57.951Z,280
2018-03-07T10:14:07.827Z,285
2018-03-07T10:15:17.903Z,275
2018-03-07T10:16:27.239Z,275
2018-03-07T10:17:37.301Z,250
2018-03-07T10:18:47.389Z,255
2018-03-07T10:19:57.275Z,270
2018-03-07T10:21:07.419Z,280
2018-03-07T10:22:17.235Z,320
2018-03-07T10:23:27.040Z,325
2018-03-07T10:24:36.587Z,330
2018-03-07T10:25:46.719Z,345
2018-03-07T10:26:56.269Z,340
2018-03-07T10:28:06.099Z,335
2018-03-07T10:29:15.650Z,305
2018-03-07T10:30:25.201Z,255
2018-03-07T10:31:35.333Z,255
2018-03-07T10:32:45.159Z,320
2018-03-07T10:33:55.217Z,320
2018-03-07T10:35:04.755Z,360
2018-03-07T10:36:14.821Z,350
2018-03-07T10:37:24.896Z,335
2018-03-07T10:38:34.954Z,300
2018-03-07T10:39:45.125Z,255
2018-03-07T10:40:55.202Z,280
2018-03-07T10:42:05.258Z,220
2018-03-07T10:43:15.134Z,205
2018-03-07T10:44:25.207Z,205
2018-03-07T10:45:35.283Z,215
2018-03-07T10:46:45.530Z,250
2018-03-07T10:47:55.347Z,330
2018-03-07T10:49:05.428Z,320
2018-03-07T10:50:15.310Z,300
2018-03-07T10:51:24.877Z,345
2018-03-07T10:52:34.690Z,355
2018-03-07T10:53:44.520Z,335
2018-03-07T10:54:54.109Z,335
2018-03-07T10:56:03.919Z,285
2018-03-07T10:57:13.484Z,265
2018-03-07T10:58:23.558Z,260
2018-03-07T10:59:33.617Z,260
2018-03-07T11:00:43.732Z,260
2018-03-07T11:01:53.284Z,230
2018-03-07T11:03:03.354Z,225
2018-03-07T11:04:13.153Z,210
2018-03-07T11:05:23.220Z,205
2018-03-07T11:06:33.345Z,210
2018-03-07T11:07:43.412Z,195
2018-03-07T11:08:53.514Z,190
2018-03-07T11:10:03.574Z,190
2018-03-07T11:11:13.125Z,180
2018-03-07T11:12:23.239Z,175
2018-03-07T11:13:33.316Z,160
2018-03-07T11:14:43.243Z,170
2018-03-07T11:15:53.308Z,165
2018-03-07T11:17:03.382Z,160
2018-03-07T11:18:13.503Z,155
2018-03-07T11:19:23.586Z,155
2018-03-07T11:20:33.656Z,150
2018-03-07T11:21:43.734Z,150
2018-03-07T11:22:53.808Z,145
2018-03-07T11:24:03.871Z,150
2018-03-07T11:25:13.958Z,150
2018-03-07T11:26:24.033Z,150
2018-03-07T11:27:34.113Z,150
2018-03-07T11:28:44.384Z,150
2018-03-07T11:29:54.452Z,145
2018-03-07T11:31:04.279Z,155
2018-03-07T11:32:14.363Z,165
2018-03-07T11:33:24.444Z,180
2018-03-07T11:34:34.632Z,190
2018-03-07T11:35:44.714Z,190
2018-03-07T11:36:54.505Z,185
2018-03-07T11:38:04.054Z,170
2018-03-07T11:39:14.113Z,170
2018-03-07T11:40:24.228Z,165
2018-03-07T11:41:33.764Z,165
2018-03-07T11:42:43.840Z,165
2018-03-07T11:43:53.639Z,170
2018-03-07T11:45:03.925Z,170
2018-03-07T11:46:13.764Z,175
2018-03-07T11:47:23.318Z,180
2018-03-07T11:48:33.407Z,180
2018-03-07T11:49:43.480Z,185
2018-03-07T11:50:53.289Z,190
2018-03-07T11:52:03.371Z,190
2018-03-07T11:53:13.447Z,190
2018-03-07T11:54:23.533Z,175
2018-03-07T11:55:33.628Z,175
2018-03-07T11:56:43.706Z,180
2018-03-07T11:57:53.807Z,185
2018-03-07T11:59:03.094Z,190
2018-03-07T12:00:13.176Z,190
2018-03-07T12:01:23.262Z,185
2018-03-07T12:02:33.318Z,185
2018-03-07T12:03:42.863Z,185
2018-03-07T12:04:52.766Z,185
2018-03-07T12:06:02.570Z,185
2018-03-07T12:07:12.771Z,190
2018-03-07T12:08:22.838Z,185
2018-03-07T12:09:32.916Z,230
2018-03-07T12:10:43.071Z,255
2018-03-07T12:11:53.171Z,220
2018-03-07T12:13:02.969Z,245
2018-03-07T12:14:12.832Z,190
2018-03-07T12:15:22.917Z,185
2018-03-07T12:16:32.992Z,175
2018-03-07T12:17:43.202Z,175
2018-03-07T12:18:53.021Z,175
2018-03-07T12:20:03.122Z,170
2018-03-07T12:21:13.190Z,170
2018-03-07T12:22:23.262Z,170
2018-03-07T12:23:33.361Z,170
2018-03-07T12:24:43.454Z,165
2018-03-07T12:25:53.286Z,160
2018-03-07T12:27:02.832Z,150
2018-03-07T12:28:12.654Z,140
2018-03-07T12:29:22.729Z,135
2018-03-07T12:30:32.786Z,135
2018-03-07T12:31:42.594Z,130
2018-03-07T12:32:52.506Z,135
2018-03-07T12:34:02.368Z,135
2018-03-07T12:35:12.454Z,140
2018-03-07T12:36:22.549Z,140
2018-03-07T12:37:32.603Z,140
2018-03-07T12:38:42.663Z,145
2018-03-07T12:39:52.246Z,145
2018-03-07T12:41:02.372Z,150
2018-03-07T12:42:12.453Z,155
2018-03-07T12:43:22.526Z,165
2018-03-07T12:44:32.328Z,165
2018-03-07T12:45:42.201Z,165
2018-03-07T12:46:51.752Z,165
2018-03-07T12:48:01.575Z,160
2018-03-07T12:49:11.129Z,165
2018-03-07T12:50:21.192Z,165
2018-03-07T12:51:31.330Z,165
2018-03-07T12:52:41.132Z,160
2018-03-07T12:53:51.202Z,160
2018-03-07T12:55:00.729Z,160
2018-03-07T12:56:10.800Z,160
2018-03-07T12:57:20.675Z,160
2018-03-07T12:58:30.788Z,160
2018-03-07T12:59:40.909Z,160
2018-03-07T13:00:51.009Z,165
2018-03-07T13:02:01.077Z,165
2018-03-07T13:03:11.234Z,170
2018-03-07T13:04:21.044Z,170
2018-03-07T13:05:31.121Z,175
2018-03-07T13:06:41.225Z,170
2018-03-07T13:07:51.299Z,165
2018-03-07T13:09:01.182Z,165
2018-03-07T13:10:11.267Z,165
2018-03-07T13:11:21.089Z,165
2018-03-07T13:12:31.194Z,165
2018-03-07T13:13:41.293Z,165
2018-03-07T13:14:51.433Z,155
2018-03-07T13:16:01.529Z,145
2018-03-07T13:17:11.426Z,140
2018-03-07T13:18:21.230Z,135
2018-03-07T13:19:31.297Z,130
2018-03-07T13:20:41.368Z,125
2018-03-07T13:21:51.189Z,120
2018-03-07T13:23:01.279Z,115
2018-03-07T13:24:10.838Z,175
2018-03-07T13:25:20.934Z,235
2018-03-07T13:26:31.055Z,150
2018-03-07T13:27:41.126Z,140
2018-03-07T13:28:51.238Z,155
2018-03-07T13:30:01.394Z,135
2018-03-07T13:31:11.220Z,125
2018-03-07T13:32:21.036Z,130
2018-03-07T13:33:30.862Z,205
2018-03-07T13:34:40.679Z,225
2018-03-07T13:35:50.498Z,210
2018-03-07T13:37:00.323Z,210
2018-03-07T13:38:10.119Z,205
2018-03-07T13:39:20.187Z,205
2018-03-07T13:40:30.010Z,200
2018-03-07T13:41:40.141Z,200
2018-03-07T13:42:49.708Z,200
2018-03-07T13:43:59.777Z,200
2018-03-07T13:45:09.600Z,200
2018-03-07T13:46:19.395Z,200
2018-03-07T13:47:29.463Z,200
2018-03-07T13:48:39.274Z,200
2018-03-07T13:49:49.462Z,200
2018-03-07T13:50:59.363Z,205
2018-03-07T13:52:09.437Z,205
2018-03-07T13:53:19.512Z,205
2018-03-07T13:54:29.610Z,205
2018-03-07T13:55:39.714Z,210
2018-03-07T13:56:49.282Z,210
2018-03-07T13:57:59.114Z,215
2018-03-07T13:59:08.381Z,220
2018-03-07T14:00:17.956Z,220
2018-03-07T14:01:28.105Z,225
2018-03-07T14:02:37.920Z,225
2018-03-07T14:03:47.978Z,225
2018-03-07T14:04:58.043Z,225
2018-03-07T14:06:08.145Z,225
2018-03-07T14:07:17.705Z,225
2018-03-07T14:08:27.775Z,220
2018-03-07T14:09:37.332Z,215
2018-03-07T14:10:47.140Z,210
2018-03-07T14:11:56.941Z,205
2018-03-07T14:13:06.751Z,200
2018-03-07T14:14:16.833Z,200
2018-03-07T14:15:26.903Z,195
2018-03-07T14:16:36.991Z,190
2018-03-07T14:17:46.847Z,190
2018-03-07T14:18:56.918Z,190
2018-03-07T14:20:06.987Z,120
2018-03-07T14:21:17.066Z,120
2018-03-07T14:22:27.142Z,125
2018-03-07T14:23:36.952Z,110
2018-03-07T14:24:46.503Z,110
2018-03-07T14:25:56.582Z,125
2018-03-07T14:27:06.649Z,110
2018-03-07T14:28:16.477Z,115
2018-03-07T14:29:26.309Z,135
2018-03-07T14:30:36.122Z,130
2018-03-07T14:31:46.208Z,140
2018-03-07T14:32:55.509Z,180
2018-03-07T14:34:05.608Z,150
2018-03-07T14:35:15.425Z,175
2018-03-07T14:36:24.430Z,165
2018-03-07T14:37:33.975Z,165
2018-03-07T14:38:43.540Z,160
2018-03-07T14:39:53.070Z,160
2018-03-07T14:41:02.938Z,155
2018-03-07T14:42:12.795Z,155
2018-03-07T14:43:22.342Z,150
2018-03-07T14:44:32.404Z,125
2018-03-07T14:45:42.510Z,160
2018-03-07T14:46:52.587Z,160
2018-03-07T14:48:02.744Z,165
2018-03-07T14:49:12.839Z,170
2018-03-07T14:50:22.383Z,155
2018-03-07T14:51:32.465Z,140
2018-03-07T14:52:42.440Z,105
2018-03-07T14:53:52.522Z,110
2018-03-07T14:55:02.132Z,145
2018-03-07T14:56:12.234Z,115
2018-03-07T14:57:22.033Z,100
2018-03-07T14:58:31.846Z,100
2018-03-07T14:59:41.401Z,100
2018-03-07T15:00:51.473Z,100
2018-03-07T15:02:00.755Z,100
2018-03-07T15:03:10.823Z,100
2018-03-07T15:04:20.957Z,100
2018-03-07T15:05:30.772Z,95
2018-03-07T15:06:40.837Z,95
2018-03-07T15:07:50.909Z,90
2018-03-07T15:09:00.733Z,90
2018-03-07T15:10:11.039Z,85
2018-03-07T15:11:21.125Z,85
2018-03-07T15:12:31.227Z,85
2018-03-07T15:13:41.306Z,90
2018-03-07T15:14:51.395Z,90
2018-03-07T15:16:01.538Z,95
2018-03-07T15:17:11.663Z,115
2018-03-07T15:18:21.764Z,115
2018-03-07T15:19:31.844Z,105
2018-03-07T15:20:41.927Z,115
2018-03-07T15:21:52.034Z,120
2018-03-07T15:23:02.129Z,115
2018-03-07T15:24:12.214Z,115
2018-03-07T15:25:22.296Z,115
2018-03-07T15:26:32.398Z,115
2018-03-07T15:27:42.588Z,110
2018-03-07T15:28:52.677Z,110
2018-03-07T15:30:02.499Z,105
2018-03-07T15:31:12.663Z,100
2018-03-07T15:32:22.476Z,100
2018-03-07T15:33:32.559Z,95
2018-03-07T15:34:42.360Z,90
2018-03-07T15:35:52.447Z,90
2018-03-07T15:37:02.534Z,85
2018-03-07T15:38:12.627Z,85
2018-03-07T15:39:22.255Z,85
2018-03-07T15:40:31.979Z,85
2018-03-07T15:41:41.825Z,85
2018-03-07T15:42:51.919Z,80
2018-03-07T15:44:02.010Z,75
2018-03-07T15:45:11.825Z,75
2018-03-07T15:46:21.908Z,75
2018-03-07T15:47:32.031Z,70
2018-03-07T15:48:42.111Z,70
2018-03-07T15:49:52.216Z,65
2018-03-07T15:51:02.088Z,60
2018-03-07T15:52:12.194Z,55
2018-03-07T15:53:22.281Z,55
2018-03-07T15:54:32.380Z,50
2018-03-07T15:55:42.486Z,45
2018-03-07T15:56:52.291Z,40
2018-03-07T15:58:02.105Z,40
2018-03-07T15:59:11.935Z,35
2018-03-07T16:00:22.007Z,35
2018-03-07T16:01:32.088Z,35
2018-03-07T16:02:42.169Z,35
2018-03-07T16:03:52.242Z,30
2018-03-07T16:05:02.086Z,30
2018-03-07T16:06:12.159Z,30
2018-03-07T16:07:22.240Z,30
2018-03-07T16:08:32.348Z,30
2018-03-07T16:09:42.474Z,25
2018-03-07T16:10:52.291Z,25
2018-03-07T16:12:01.846Z,25
2018-03-07T16:13:11.946Z,25
2018-03-07T16:14:22.324Z,25
2018-03-07T16:15:32.495Z,25
2018-03-07T16:16:42.666Z,20
2018-03-07T16:17:52.798Z,20
2018-03-07T16:19:02.998Z,20
2018-03-07T16:20:12.864Z,20
2018-03-07T16:21:22.972Z,20
2018-03-07T16:22:33.149Z,20
2018-03-07T16:23:42.975Z,15
2018-03-07T16:24:53.064Z,15
2018-03-07T16:26:03.156Z,15
2018-03-07T16:27:12.982Z,15
2018-03-07T16:28:23.071Z,15
2018-03-07T16:29:33.209Z,10
2018-03-07T16:30:43.614Z,10
2018-03-07T16:31:53.740Z,10
2018-03-07T16:33:03.825Z,10
2018-03-07T16:34:13.656Z,10
2018-03-07T16:35:23.736Z,10
2018-03-07T16:36:33.900Z,10
2018-03-07T16:37:43.976Z,5
2018-03-07T16:38:53.846Z,5
2018-03-07T16:40:03.934Z,5
2018-03-07T16:41:14.037Z,5
2018-03-07T16:42:24.239Z,5
2018-03-07T16:43:34.354Z,5
2018-03-07T16:44:44.581Z,5
2018-03-07T16:45:54.682Z,5
2018-03-07T16:47:04.778Z,0
2018-03-07T16:48:14.926Z,0
2018-03-07T16:49:25.038Z,0
2018-03-07T16:50:35.374Z,0
2018-03-07T16:51:45.494Z,0
2018-03-07T16:52:55.826Z,0
2018-03-07T16:54:05.943Z,0
2018-03-07T16:55:15.760Z,0
2018-03-07T16:56:25.947Z,0
2018-03-07T16:57:35.860Z,0
2018-03-07T16:58:46.008Z,0
2018-03-07T16:59:56.188Z,0
2018-03-07T17:01:06.321Z,0
2018-03-07T17:02:16.149Z,0
2018-03-07T17:03:26.254Z,0
2018-03-07T17:04:35.885Z,0